Paydown, Missouri
Current Conditions -  °F | °C
As of 3:53 AM on Wednesday 22 Oct 2014 (Local Time) from KVIH Reporting Station
Clear Clear  
Wind Chill: 42°   Ceiling: Unl
Heat Index: 46°   Visibility: 10mi
Dew Point: 40°   Wind: 8mph
Humidity: 79%   Direction: 90°E
Pressure: 30.19"   Gusts: NA
Location:  38.2601°N, 91.7526°W
Report Text: KVIH 220853Z AUTO 09007KT 10SM CLR 08/04 A3019 RMK AO2 SLP219 T00780044 51009
Loading
Personal Weather Stations






























Interactive Weather Map
Tropical Storm Tracking
New forecast layout! Learn more

10-Day Weather Forecast

Advertisements
Track Severe Weather on mobile